Außentemperatur Tagesdurchschnitt Außenfeuchte Tagesdurchschnitt Taupunkt Tagesdurchschnitt Windchill Tagesdurchschnitt Windgeschwindigkeit Tagesdurchschnitt Gesamtregen Mindesttemperatur Höchsttemperatur Höchste Windgeschwindigkeit  Tägliche Niederschlagsmenge 
                         
                         
max min mittel °C % °C °C km/h mm/m² °C °C km/h mm/m²
1.1.13 1013,7 1009,0 1010,4 3,4 64,3 -2,9 2,5 3,6 0,6 0,8 6,8 37,8 0,6
2.1.13 1029,6 1013,1 1022,1 1,3 84,1 -1,1 0,7 3,5 2,5 0,1 4,9 25,2 1,9
3.1.13 1032,7 1028,2 1030,0 1,8 88,3 0,0 -0,5 7,6 5,2 0,7 4,8 24,0 2,7
4.1.13 1033,0 1028,0 1031,0 6,2 95,7 5,6 4,2 7,8 18,8 4,2 7,8 26,6 13,6
5.1.13 1030,1 1026,6 1028,2 6,2 95,8 5,6 4,5 7,4 29,6 5,1 7,7 32,4 10,8
6.1.13 1029,7 1024,0 1026,6 4,6 96,0 4,0 3,5 5,9 38,0 3,8 5,4 25,5 8,4
7.1.13 1028,2 1025,7 1027,3 4,1 93,7 3,1 3,7 3,0 42,0 3,1 5,4 21,2 4,0
8.1.13 1027,6 1023,6 1024,9 3,2 93,9 2,3 2,8 3,0 46,1 2,5 4,4 19,4 4,1
9.1.13 1024,6 1015,1 1020,7 2,7 92,9 1,6 2,2 3,4 48,0 1,1 4,0 21,2 1,9
10.1.13 1015,1 1008,2 1011,8 0,8 88,5 -0,9 -0,8 6,7 50,7 0,2 1,3 23,7 2,7
11.1.13 1017,0 1008,3 1013,4 -3,8 74,9 -7,7 -4,4 4,0 50,7 -5,8 0,3 20,8 0,0
12.1.13 1018,5 1016,3 1017,4 -5,9 65,1 -11,5 -6,1 1,6 51,5 -11,6 0,3 13,8 0,8
13.1.13 1018,4 1015,6 1017,0 -8,3 64,8 -13,7 -8,3 0,6 51,5 -13,4 -1,3 15,4 0,0
14.1.13 1015,7 1011,7 1013,4 -5,5 67,9 -10,4 -5,8 2,2 51,5 -6,8 -4,3 21,9 0,0
15.1.13 1011,9 1006,8 1009,0 -6,2 64,7 -11,7 -6,4 1,6 51,5 -9,7 -2,7 29,8 0,0
16.1.13 1007,5 1006,8 1007,6 -5,5 73,1 -9,5 -5,7 1,9 51,5 -8,6 -3,0 17,6 0,0
17.1.13 1014,1 1008,7 1011,5 -6,2 75,3 -9,8 -8,0 6,3 51,5 -6,9 -5,1 27,7 0,0
18.1.13 1013,8 1005,7 1010,2 -6,5 73,8 -10,3 -7,5 4,6 51,5 -7,8 -5,4 25,2 0,0
19.1.13 1005,8 999,6 1001,3 -8,1 67,0 -13,1 -8,5 2,8 51,5 -8,8 -7,3 20,8 0,0
20.1.13 999,9 996,8 998,5 -7,0 68,3 -11,9 -7,4 3,2 51,5 -8,3 -5,4 25,2 0,0
21.1.13 1002,3 996,8 999,6 -6,3 71,4 -10,6 -6,4 1,2 51,5 -7,5 -3,9 13,3 0,0
22.1.13 1007,6 1002,2 1005,0 -6,3 68,3 -11,2 -6,3 0,6 51,5 -7,5 -4,1 10,8 0,0
23.1.13 1009,1 1007,2 1007,9 -6,2 74,1 -10,0 -6,2 0,6 51,5 -7,8 -4,0 10,4 0,0
24.1.13 1015,5 1008,6 1011,2 -8,1 69,4 -12,7 -8,3 2,6 51,5 -8,9 -6,8 17,2 0,0
25.1.13 1018,8 1015,4 1017,7 -8,4 70,1 -12,8 -8,9 3,3 51,5 -9,4 -7,2 16,9 0,0
26.1.13 1017,0 1013,5 1014,4 -8,4 68,5 -13,1 -9,3 3,2 51,5 -9,3 -6,6 29,1 0,0
27.1.13 1014,3 1006,6 1010,5 -3,4 73,1 -7,4 -3,8 2,3 51,5 -7,1 -0,1 23,7 0,0
28.1.13 1018,6 1007,6 1014,4 0,5 86,3 -1,5 0,3 2,8 51,6 -0,4 2,1 28,4 0,1
29.1.13 1018,6 1012,0 1014,3 2,9 86,2 0,7 1,3 6,4 63,0 1,2 5,1 43,5 11,4
30.1.13 1014,2 1007,9 1011,8 7,6 91,5 6,3 5,9 7,3 76,8 5,0 10,2 39,6 13,8
31.1.13 1017,2 1010,8 1014,2 4,4 65,3 -1,7 -0,2 13,5 79,6 2,8 8,7 49,6 2,8
1.2.13 1012,9 993,2 1006,2 2,5 78,0 -0,9 1,1 5,2 84,8 1,1 4,8 33,8 5,2
2.2.13 1009,2 991,1 999,2 0,5 81,3 -2,3 -1,0 5,1 86,4 -4,4 2,8 29,5 1,6
3.2.13 1016,4 1009,2 1013,4 -1,3 71,7 -5,8 -2,7 5,7 86,5 -4,1 0,4 32,4 0,1
4.2.13 1010,6 1008,7 1009,8 0,4 88,8 -1,2 -1,9 7,5 94,2 -1,9 2,8 32,4 7,7
5.2.13 1010,9 1000,1 1003,9 1,3 79,0 -1,9 -0,0 5,5 99,1 -1,3 6,0 37,4 4,9
6.2.13 1003,1 998,9 1000,5 -1,7 69,6 -6,6 -2,0 1,9 99,6 -4,4 3,1 21,9 0,5
7.2.13 1010,7 1003,0 1007,2 -2,7 72,8 -7,0 -3,1 2,2 99,8 -5,9 2,4 23,4 0,2
8.2.13 1013,2 1010,4 1011,4 -3,8 70,6 -8,4 -4,1 2,3 100,4 -7,7 0,7 18,3 0,6
9.2.13 1017,8 1013,2 1016,0 -4,2 64,5 -10,1 -4,4 1,9 101,0 -7,1 1,1 15,1 0,6
10.2.13 1017,5 1010,7 1015,1 -5,3 60,3 -12,4 -5,4 0,8 101,0 -9,1 0,5 19,4 0,0
11.2.13 1010,8 1006,1 1007,4 -6,3 55,6 -13,7 -7,6 4,9 101,0 -9,0 -1,3 30,6 0,0
12.2.13 1014,1 1006,5 1009,5 -5,1 64,2 -10,8 -6,4 5,4 101,0 -5,9 -3,5 21,6 0,0
13.2.13 1026,0 1014,0 1020,7 -4,4 71,6 -8,7 -4,7 3,1 101,0 -5,2 -2,6 15,8 0,0
14.2.13 1026,1 1018,2 1022,6 -3,2 61,5 -9,6 -3,2 0,4 101,1 -5,2 -0,3 16,9 0,1
15.2.13 1021,3 1016,1 1018,1 -1,5 58,2 -8,9 -1,7 1,3 102,0 -4,6 5,3 23,0 0,9
16.2.13 1023,7 1021,3 1022,7 -0,5 77,3 -4,0 -0,5 0,9 103,5 -2,8 1,6 9,7 1,5
17.2.13 1024,0 1022,7 1023,2 -0,1 82,6 -2,7 -0,3 2,3 104,6 -0,9 1,2 19,0 1,1
18.2.13 1022,9 1019,3 1021,3 -0,8 70,0 -5,7 -0,9 1,7 104,6 -1,9 1,7 14,0 0,0
19.2.13 1019,5 1012,2 1015,1 -1,8 71,8 -6,2 -3,1 5,3 104,6 -3,6 -0,5 15,8 0,0
20.2.13 1021,2 1016,3 1019,2 -3,6 68,4 -8,6 -4,9 5,5 105,9 -5,5 0,8 25,5 1,3
21.2.13 1021,1 1018,0 1019,5 -6,9 63,1 -12,8 -7,9 4,1 105,9 -11,3 -3,3 23,4 0,0
22.2.13 1018,1 1011,6 1014,1 -7,6 62,6 -13,5 -9,2 5,9 105,9 -9,5 -4,5 32,4 0,0
23.2.13 1011,5 1008,4 1009,7 -6,6 70,4 -11,1 -7,9 5,1 105,9 -7,7 -4,9 23,7 0,0
24.2.13 1014,7 1009,6 1011,5 -3,3 77,7 -6,6 -3,4 1,9 105,9 -6,3 -0,5 15,1 0,0
25.2.13 1024,4 1014,6 1018,2 -0,3 85,0 -2,5 -0,3 1,2 106,1 -1,8 1,2 13,5 0,2
26.2.13 1029,1 1024,2 1026,9 -0,5 88,4 -2,1 -1,3 4,2 107,4 -2,2 0,5 30,9 1,3
27.2.13 1030,2 1028,6 1029,2 -1,5 87,4 -3,3 -2,0 2,7 107,7 -2,8 1,5 21,2 0,3
28.2.13 1029,2 1023,7 1026,3 -0,1 79,9 -3,1 -0,1 1,0 107,8 -1,1 1,2 16,5 0,1
1.3.13 1024,2 1021,7 1022,6 -0,8 76,5 -4,4 -1,2 3,8 108,9 -2,3 2,1 19,0 1,1
2.3.13 1025,4 1021,4 1023,5 -0,7 64,2 -7,0 -0,7 0,5 114,6 -6,1 8,4 10,0 5,7
3.3.13 1023,7 1020,8 1021,9 -3,5 66,0 -8,9 -3,7 2,0 115,1 -10,3 2,3 15,8 0,5
4.3.13 1023,8 1020,1 1022,5 -0,1 48,4 -11,0 -0,4 1,7 119,0 -8,8 6,7 23,4 3,9
5.3.13 1020,0 1011,5 1015,4 3,0 40,1 -10,0 2,5 2,6 119,0 -2,5 10,7 28,0 0,0
6.3.13 1011,5 1005,2 1008,1 5,3 45,0 -7,1 5,0 1,9 119,0 -0,7 13,8 22,6 0,0
7.3.13 1005,6 1003,0 1004,1 5,0 60,9 -2,0 5,0 0,5 119,0 -0,1 12,8 15,8 0,0
8.3.13 1005,8 1004,1 1004,9 4,7 71,2 -0,3 4,6 1,0 119,0 1,2 13,0 18,7 0,0
9.3.13 1005,8 1003,2 1004,5 4,2 84,4 1,8 4,2 0,3 120,9 1,0 10,4 10,0 1,9
10.3.13 1003,2 998,6 1000,9 5,3 70,9 0,0 4,6 3,5 122,0 -1,5 11,5 25,5 1,1
11.3.13 1005,3 1001,1 1004,0 -5,5 71,8 -9,7 -6,7 5,3 122,0 -6,8 -1,8 20,8 0,0
12.3.13 1005,0 1000,4 1002,3 -6,1 70,3 -10,6 -6,9 4,4 122,0 -7,5 -3,5 19,4 0,0
13.3.13 1007,2 1000,7 1003,2 -6,9 64,4 -12,5 -7,6 3,7 122,0 -9,3 -3,9 20,8 0,0
14.3.13 1011,0 1007,3 1009,0 -7,2 59,1 -14,1 -7,4 1,9 125,0 -14,3 2,2 20,1 3,0
15.3.13 1017,7 1010,7 1014,1 -5,5 55,1 -13,7 -5,7 1,9 126,9 -13,2 2,2 14,4 1,9
16.3.13 1018,5 1012,9 1016,8 -5,6 38,7 -18,8 -6,1 2,5 129,7 -17,1 5,4 28,4 2,8
17.3.13 1013,0 1002,5 1008,0 -1,3 28,7 -17,7 -3,4 7,5 129,7 -5,9 3,4 61,5 0,0
18.3.13 1002,9 993,8 998,2 -1,9 67,9 -7,1 -2,6 3,4 130,3 -3,2 0,1 32,7 0,6
19.3.13 1003,2 993,5 998,4 0,2 76,6 -3,5 -1,1 5,5 137,2 -2,6 4,8 29,1 6,9
20.3.13 1009,1 1003,4 1005,5 2,9 73,1 -1,7 2,6 2,0 142,2 0,4 9,5 36,7 5,0
21.3.13 1019,1 1009,1 1015,2 -0,9 71,9 -5,3 -1,0 1,0 143,7 -2,6 2,2 23,7 1,5
22.3.13 1019,6 1017,9 1018,8 -3,3 57,1 -10,7 -4,1 4,2 143,7 -4,8 0,1 19,7 0,0
23.3.13 1019,3 1017,4 1018,2 -4,4 39,1 -17,4 -6,6 7,1 143,7 -7,8 -0,4 36,0 0,0
24.3.13 1019,3 1015,3 1017,1 -6,0 19,0 -25,9 -8,5 7,9 143,7 -10,5 0,6 33,1 0,0
25.3.13 1015,8 1012,1 1013,6 -4,4 25,7 -21,7 -7,1 8,3 143,7 -7,5 0,5 39,2 0,0
26.3.13 1012,6 1010,6 1011,5 -4,3 31,2 -19,8 -6,1 6,7 143,7 -8,4 0,4 23,4 0,0
27.3.13 1012,4 1010,7 1011,5 -4,0 30,3 -19,8 -4,4 3,0 143,7 -7,5 0,8 29,5 0,0
28.3.13 1011,6 1007,1 1009,7 -1,5 48,3 -12,0 -1,9 3,0 143,7 -5,0 4,6 24,8 0,0
29.3.13 1007,8 1005,3 1006,9 -0,0 58,9 -7,6 -1,2 4,9 146,4 -2,3 4,1 29,5 2,7
30.3.13 1008,1 1005,6 1006,5 0,2 53,1 -9,0 -0,6 3,7 146,4 -2,6 7,4 21,9 0,0
31.3.13 1011,1 1007,6 1009,1 -2,4 59,7 -9,3 -3,3 5,0 146,4 -4,3 0,8 20,8 0,0
1.4.13 1011,6 1009,6 1010,5 -2,5 55,6 -10,6 -3,0 3,2 148,8 -6,2 2,5 19,0 2,4
2.4.13 1013,9 1010,3 1011,5 -1,0 40,9 -13,6 -2,3 5,3 148,8 -5,3 4,4 26,6 0,0
3.4.13 1015,7 1013,9 1014,9 -1,8 56,5 -9,3 -3,4 6,5 148,8 -3,5 0,1 26,2 0,0
4.4.13 1014,8 1011,1 1012,7 -1,1 58,7 -8,2 -2,2 4,6 148,8 -3,1 2,2 24,1 0,0
5.4.13 1012,5 1008,0 1009,4 -1,1 68,9 -6,0 -2,1 5,0 148,8 -2,2 0,2 25,9 0,0
6.4.13 1020,8 1012,4 1016,2 -0,5 78,9 -3,7 -0,9 2,7 149,1 -1,6 1,4 15,4 0,3
7.4.13 1021,8 1017,8 1020,3 1,6 50,8 -9,5 1,1 3,1 149,5 -3,4 8,8 19,4 0,4
8.4.13 1017,6 1006,7 1011,4 0,9 39,2 -13,1 0,5 1,9 149,5 -7,2 9,4 27,3 0,0
9.4.13 1007,0 1004,4 1005,9 4,4 53,0 -4,6 4,3 1,2 157,0 1,5 10,4 27,0 7,5
10.4.13 1011,7 1005,6 1008,1 5,3 77,7 1,6 4,6 2,9 162,1 2,3 9,9 35,2 5,1
11.4.13 1011,7 1004,6 1007,7 7,6 77,6 3,8 6,5 4,6 163,8 2,1 12,5 43,5 1,7
12.4.13 1010,5 1002,0 1005,9 9,8 71,3 4,5 8,2 6,1 171,9 5,2 13,2 27,0 8,1
13.4.13 1025,0 1010,5 1017,7 8,2 58,8 0,2 6,6 6,6 172,5 4,3 13,3 32,4 0,6
14.4.13 1028,6 1025,1 1027,2 8,7 59,6 0,5 8,5 1,8 172,5 -0,2 18,5 22,3 0,0
15.4.13 1026,7 1021,5 1024,3 14,7 47,4 2,6 14,5 2,5 172,5 7,3 22,5 34,2 0,0
16.4.13 1023,5 1021,0 1021,9 14,0 56,2 5,0 13,7 2,4 173,1 9,5 22,5 25,2 0,6
17.4.13 1026,2 1022,7 1024,5 15,2 60,9 6,5 15,1 1,7 173,1 8,8 22,2 23,4 0,0
18.4.13 1022,5 1017,7 1019,6 17,3 51,9 6,1 16,9 4,4 173,1 10,1 25,6 37,8 0,0
19.4.13 1025,9 1020,1 1022,9 11,3 52,4 1,0 11,2 2,1 176,2 7,3 15,4 21,6 3,1
20.4.13 1028,2 1025,5 1026,8 6,1 79,3 2,7 4,8 5,4 177,2 3,8 9,2 30,9 1,0
21.4.13 1025,7 1016,5 1020,5 10,0 63,2 2,7 9,8 2,2 177,2 2,2 17,8 21,6 0,0
22.4.13 1019,8 1016,0 1017,4 10,5 70,1 4,9 10,4 1,9 177,2 3,8 17,3 16,9 0,0
23.4.13 1025,2 1019,7 1021,9 11,8 53,8 0,7 11,0 4,6 177,2 4,8 18,5 32,4 0,0
24.4.13 1028,4 1025,4 1027,1 13,0 51,2 1,7 12,5 3,6 177,2 2,8 21,7 29,5 0,0
25.4.13 1028,1 1022,5 1026,0 15,6 50,2 2,7 15,5 1,5 177,2 4,1 26,1 20,5 0,0
26.4.13 1022,5 1007,0 1014,5 16,8 47,8 3,3 16,4 4,2 177,3 7,2 25,4 35,6 0,1
27.4.13 1010,0 1006,0 1007,7 7,7 87,8 5,7 6,3 5,5 182,3 4,2 13,8 32,7 5,0
28.4.13 1018,0 1009,2 1015,1 5,6 83,6 2,8 4,6 4,5 182,3 1,9 10,3 24,8 0,0
29.4.13 1022,5 1016,5 1018,8 9,1 73,2 4,3 8,7 2,7 182,4 7,1 12,4 29,1 0,1
30.4.13 1023,8 1021,2 1022,2 7,5 85,8 5,2 7,0 3,2 188,2 3,7 13,3 24,4 5,8
1.5.13 1024,9 1021,0 1023,4 8,6 85,0 6,1 8,4 2,5 188,6 5,8 12,2 30,2 0,4
2.5.13 1021,5 1019,7 1020,4 10,2 89,2 8,5 9,7 3,3 188,6 9,0 11,7 21,2 0,0
3.5.13 1019,5 1017,3 1018,1 10,4 86,6 8,1 10,0 4,2 189,5 8,7 12,9 23,7 0,9
4.5.13 1022,0 1017,4 1019,1 11,6 78,6 7,8 11,3 1,9 190,4 9,1 16,8 18,3 0,9
5.5.13 1025,5 1022,1 1024,3 14,6 62,5 6,0 14,5 2,4 190,4 9,3 22,8 23,0 0,0
6.5.13 1025,0 1019,0 1021,8 13,5 63,9 6,2 13,3 3,0 190,4 4,8 20,3 29,5 0,0
7.5.13 1019,0 1016,5 1017,4 15,1 76,1 10,6 15,0 1,0 197,3 12,1 20,8 26,2 6,9
8.5.13 1017,7 1015,3 1016,7 16,5 69,1 9,4 16,3 2,6 197,3 11,3 24,1 30,9 0,0
9.5.13 1018,2 1015,5 1016,8 16,6 65,6 9,3 16,2 3,5 197,3 12,3 23,2 31,3 0,0
10.5.13 1018,9 1014,7 1016,3 13,6 75,0 8,9 13,2 3,0 201,2 11,3 17,0 20,5 3,9
11.5.13 1019,2 1015,7 1017,4 11,8 72,5 6,8 11,6 1,7 201,2 8,9 16,9 15,1 0,0
12.5.13 1019,6 1014,5 1016,3 8,6 76,2 4,4 7,6 4,5 201,7 3,4 14,4 27,3 0,5
13.5.13 1020,0 1016,6 1018,4 6,9 87,1 4,8 6,5 2,1 202,7 3,3 9,4 18,0 1,0
14.5.13 1017,0 1011,3 1014,7 12,2 62,8 4,5 11,7 3,6 202,7 9,3 17,3 30,9 0,0
15.5.13 1011,1 1004,0 1006,9 16,2 49,7 4,2 15,7 4,3 202,7 9,1 23,5 41,0 0,0
16.5.13 1006,7 999,0 1002,3 17,0 52,6 6,7 16,6 4,0 202,7 10,5 21,1 34,2 0,0
17.5.13 1004,7 1000,2 1001,6 17,5 54,3 7,4 17,2 3,1 246,1 12,7 24,4 30,2 43,4
18.5.13 1013,2 1004,3 1010,1 12,5 77,1 7,9 11,8 4,3 261,5 9,5 17,8 25,9 15,4
19.5.13 1012,7 1006,8 1010,0 13,5 68,8 6,5 12,8 4,4 277,0 4,5 24,0 38,8 15,5
20.5.13 1015,2 1010,1 1012,8 11,9 64,6 4,6 10,8 6,2 277,0 8,1 18,7 36,0 0,0
21.5.13 1015,3 1011,5 1013,5 11,5 58,8 3,1 10,6 5,1 277,9 5,2 16,9 31,3 0,9
22.5.13 1013,4 1007,8 1010,0 8,4 82,5 5,6 7,9 3,5 286,3 5,8 10,7 25,2 8,4
23.5.13 1013,5 1007,4 1010,3 7,4 62,4 0,2 7,3 1,1 286,3 3,3 11,2 23,4 0,0
24.5.13 1013,9 1008,5 1011,7 6,0 69,5 0,6 5,4 3,7 287,4 3,6 10,1 17,2 1,1
25.5.13 1013,9 1011,9 1012,6 7,1 77,9 3,3 6,8 2,5 292,2 4,5 11,5 16,5 4,8
26.5.13 1012,2 1006,6 1008,8 5,1 91,0 3,7 3,4 6,9 316,0 2,9 7,2 34,9 23,8
27.5.13 1012,0 1006,6 1009,4 7,3 94,1 6,4 6,2 5,4 321,0 5,8 9,1 29,5 5,0
28.5.13 1011,9 1003,8 1008,0 12,4 70,5 6,1 12,4 0,9 321,0 7,7 20,1 15,4 0,0
29.5.13 1007,9 1002,1 1003,7 10,1 83,0 7,3 10,0 1,3 325,3 6,6 13,0 20,1 4,3
30.5.13 1009,1 1003,4 1007,9 8,8 82,9 5,8 8,4 3,2 334,3 4,9 12,7 19,4 9,0
31.5.13 1007,2 999,5 1002,3 12,1 95,4 11,3 11,5 4,4 367,1 9,8 15,2 30,2 32,8
1.6.13 1013,1 1007,5 1010,3 10,2 96,0 9,5 9,4 4,1 379,3 6,8 12,6 34,9 12,2
2.6.13 1022,7 1013,0 1017,2 8,1 96,0 7,5 6,3 7,8 423,2 6,5 10,7 31,3 43,9
3.6.13 1023,8 1022,8 1023,3 7,8 90,5 6,2 6,9 5,1 435,5 5,4 10,8 25,2 12,3
4.6.13 1023,5 1020,9 1022,0 12,8 70,8 6,9 12,4 3,4 435,8 7,7 20,2 22,3 0,3
5.6.13 1022,4 1020,9 1021,6 15,2 54,7 3,5 14,9 2,9 435,8 9,1 21,9 23,7 0,0
6.6.13 1023,5 1022,0 1022,8 14,7 60,5 6,5 14,6 1,7 435,8 4,8 21,8 20,5 0,0
7.6.13 1023,7 1021,5 1022,8 16,6 66,2 9,6 16,4 2,1 435,8 9,4 23,9 20,3 0,0
8.6.13 1022,1 1016,2 1019,3 17,8 65,1 10,4 17,7 1,8 435,8 11,2 25,8 21,2 0,0
9.6.13 1016,3 1010,9 1013,0 15,9 82,3 12,6 15,8 1,4 447,4 11,8 22,5 14,4 11,6
10.6.13 1015,5 1010,2 1012,0 13,8 87,3 11,6 13,5 2,7 452,8 11,4 18,0 21,9 5,4
11.6.13 1021,1 1015,7 1018,3 15,2 68,2 8,2 15,1 1,9 452,8 10,1 23,0 23,7 0,0
12.6.13 1023,0 1021,1 1022,2 17,5 55,0 6,6 17,3 2,8 452,8 10,2 24,8 34,9 0,0
13.6.13 1022,9 1016,1 1020,2 19,9 51,5 8,5 19,7 3,1 452,8 12,4 27,6 34,2 0,0
14.6.13 1023,8 1015,8 1021,4 16,3 54,1 6,1 15,9 3,6 457,2 10,9 21,1 30,2 4,4
15.6.13 1020,9 1017,0 1018,5 15,9 58,4 6,8 15,3 5,0 457,2 6,3 24,0 38,1 0,0
16.6.13 1020,5 1017,9 1019,5 18,7 42,7 4,9 18,2 5,3 457,2 12,7 24,7 35,2 0,0
17.6.13 1020,2 1017,3 1018,9 21,4 50,7 9,4 21,3 1,4 457,2 10,5 31,5 15,4 0,0
18.6.13 1021,3 1018,0 1019,2 27,7 44,9 13,2 27,7 3,1 457,2 19,9 36,2 27,7 0,0
19.6.13 1021,5 1015,8 1018,5 26,7 49,3 13,8 26,7 3,1 457,2 17,5 33,4 33,1 0,0
20.6.13 1019,0 1012,7 1015,4 24,7 57,7 15,0 24,5 3,8 478,4 17,4 34,0 62,4 21,2
21.6.13 1020,3 1012,9 1017,5 18,9 60,4 9,9 18,1 6,3 489,1 14,1 24,5 25,5 10,7
22.6.13 1020,9 1017,6 1019,6 18,4 54,1 8,1 18,1 3,7 489,1 12,5 25,0 33,8 0,0
23.6.13 1019,4 1016,2 1017,2 17,2 57,2 8,0 16,6 4,8 489,1 13,4 21,7 34,2 0,0
24.6.13 1022,2 1019,0 1020,3 15,9 50,0 5,2 15,5 4,1 489,1 11,9 21,2 27,0 0,0
25.6.13 1025,2 1021,9 1023,3 11,6 79,0 8,0 11,0 5,0 497,3 9,1 13,5 25,5 8,2
26.6.13 1027,4 1025,0 1026,3 10,0 67,9 4,0 9,1 6,1 497,3 7,9 12,5 25,5 0,0
27.6.13 1027,4 1023,7 1025,2 11,8 61,3 4,1 11,4 2,9 497,3 8,4 18,4 29,1 0,0
28.6.13 1024,1 1021,3 1022,5 12,5 61,4 4,2 12,3 2,7 497,3 4,9 20,4 31,3 0,0
29.6.13 1023,1 1018,5 1020,2 12,3 75,1 7,9 11,6 4,5 502,1 11,2 14,3 29,8 4,8
30.6.13 1025,5 1023,1 1024,2 12,1 62,1 4,2 11,3 4,8 502,1 6,8 17,4 19,4 0,0
1.7.13 1023,6 1019,5 1021,6 16,3 52,5 5,3 15,9 4,1 502,1 6,1 23,8 34,7 0,0
2.7.13 1020,0 1017,3 1018,7 18,9 51,4 7,2 18,6 3,5 502,1 10,8 26,0 35,2 0,0
3.7.13 1018,6 1014,5 1015,9 17,2 64,0 10,1 16,9 2,6 504,5 12,7 22,1 37,8 2,4
4.7.13 1026,4 1018,6 1022,2 18,8 68,5 12,1 18,8 1,9 504,7 14,3 26,1 12,2 0,2
5.7.13 1031,4 1026,4 1028,9 19,6 63,1 11,8 19,4 2,5 504,7 14,6 25,0 23,4 0,0
6.7.13 1031,9 1030,1 1031,3 19,2 62,8 10,9 18,9 3,4 504,7 12,2 26,4 27,3 0,0
7.7.13 1032,2 1030,6 1031,6 19,4 53,9 8,3 19,2 3,9 504,7 10,6 27,1 31,3 0,0
8.7.13 1032,6 1029,5 1031,3 19,0 52,2 7,9 18,7 4,0 504,7 9,5 26,0 33,1 0,0
9.7.13 1030,5 1024,0 1027,3 20,3 62,4 12,2 20,2 1,7 504,7 10,6 28,2 15,8 0,0
10.7.13 1023,9 1018,8 1021,0 20,4 63,7 12,6 20,2 1,9 504,7 12,4 28,1 16,9 0,0
11.7.13 1022,6 1019,6 1021,0 15,1 67,0 8,8 15,1 1,3 504,7 11,6 18,9 9,0 0,0
12.7.13 1023,6 1022,0 1022,9 16,8 62,5 8,9 16,7 1,2 504,7 8,5 23,7 10,4 0,0
13.7.13 1024,2 1023,0 1023,6 16,6 63,6 8,9 16,5 0,8 504,7 7,2 24,4 8,2 0,0
14.7.13 1024,7 1022,8 1024,1 18,1 62,5 9,8 18,0 1,0 504,7 7,6 26,9 11,5 0,0
15.7.13 1025,7 1023,3 1024,6 18,3 62,8 10,2 18,2 1,5 504,7 11,9 25,0 14,4 0,0
16.7.13 1027,2 1025,3 1026,3 19,2 55,3 8,8 19,2 1,0 504,7 7,8 28,4 12,2 0,0
17.7.13 1025,7 1024,4 1025,2 20,7 46,3 7,1 20,6 2,5 504,7 10,8 30,5 15,8 0,0
18.7.13 1026,2 1024,2 1025,5 21,4 47,4 8,6 21,2 4,0 504,7 12,1 29,1 25,2 0,0
19.7.13 1025,7 1021,9 1024,1 21,7 48,7 8,7 21,6 2,8 504,7 12,2 29,6 14,4 0,0
20.7.13 1024,2 1023,0 1023,5 20,1 53,2 9,4 19,9 3,8 504,7 12,0 27,0 26,2 0,0
21.7.13 1025,1 1022,6 1024,1 21,2 46,6 6,9 21,2 2,2 504,7 10,8 30,9 31,2 0,0
22.7.13 1023,6 1018,8 1021,5 23,8 38,0 6,6 23,8 1,4 504,7 13,5 33,7 18,7 0,0
23.7.13 1019,9 1016,8 1018,3 24,3 37,2 6,4 24,3 1,8 504,7 13,0 33,4 33,0 0,0
24.7.13 1019,6 1016,7 1018,2 22,1 48,5 9,3 22,0 1,9 524,3 17,2 29,8 33,1 19,6
25.7.13 1020,7 1018,8 1019,9 22,7 61,8 13,5 22,7 2,2 524,9 16,8 30,6 17,2 0,6
26.7.13 1020,6 1017,6 1019,4 24,4 50,1 10,9 24,4 1,0 524,9 14,4 33,1 27,0 0,0
27.7.13 1018,1 1013,3 1015,8 26,2 43,0 10,1 26,2 2,2 524,9 15,9 35,7 35,6 0,0
28.7.13 1018,3 1013,5 1015,4 27,6 35,9 9,9 27,5 3,0 527,1 21,2 36,0 26,6 2,2
29.7.13 1019,8 1016,4 1018,1 19,1 76,7 14,7 18,9 3,4 529,5 16,8 23,2 27,0 2,4
30.7.13 1022,6 1018,9 1021,5 18,3 67,8 11,8 17,6 6,2 530,8 14,8 24,2 30,9 1,3
31.7.13 1023,4 1020,6 1021,9 18,9 64,7 11,7 18,3 5,5 530,8 14,6 23,1 29,5 0,0
1.8.13 1023,6 1020,0 1022,1 21,8 55,6 10,4 21,8 1,4 530,8 11,8 32,0 21,9 0,0
2.8.13 1021,0 1018,4 1019,8 25,1 43,8 9,5 25,1 3,2 530,8 15,2 34,4 31,3 0,0
3.8.13 1023,6 1018,4 1020,4 26,0 45,2 11,7 26,0 2,6 530,8 16,5 34,9 19,4 0,0
4.8.13 1024,7 1022,4 1023,5 23,3 58,7 14,0 23,2 1,4 535,3 18,2 32,4 12,6 4,5
5.8.13 1024,9 1019,3 1022,2 22,1 61,9 12,7 22,1 1,9 535,3 14,7 30,1 28,8 0,0
6.8.13 1020,5 1016,1 1018,8 23,8 58,6 13,8 23,7 2,5 539,4 17,1 34,7 32,4 4,1
7.8.13 1019,3 1014,7 1016,6 21,7 65,1 13,7 21,6 2,1 539,4 15,6 29,7 31,3 0,0
8.8.13 1022,1 1014,7 1018,1 21,2 60,7 13,1 21,0 3,5 540,3 18,4 26,2 20,5 0,9
9.8.13 1023,6 1022,0 1022,7 15,5 84,2 12,8 15,4 1,5 543,3 12,9 18,2 14,4 3,0
10.8.13 1024,1 1020,7 1022,3 17,6 67,8 10,2 17,4 3,0 543,3 10,3 25,3 30,6 0,0
11.8.13 1022,0 1020,6 1021,4 15,9 58,4 6,4 15,4 3,8 543,3 11,1 20,8 31,3 0,0
12.8.13 1021,6 1016,4 1019,5 15,9 54,4 4,9 15,7 2,7 543,3 6,7 24,5 38,5 0,0
13.8.13 1022,6 1016,9 1019,7 14,8 63,3 6,9 14,1 5,0 544,4 10,8 20,4 29,1 1,1
14.8.13 1026,4 1022,5 1024,4 14,1 54,7 3,4 13,9 2,2 544,4 5,4 21,2 27,0 0,0
15.8.13 1027,1 1024,5 1025,9 14,2 51,5 2,1 14,2 0,5 544,4 4,2 22,4 15,8 0,0
16.8.13 1025,5 1020,7 1023,3 17,1 47,2 3,2 17,0 1,6 544,4 6,2 25,9 23,0 0,0
17.8.13 1021,5 1018,3 1019,7 20,5 42,0 5,0 20,4 2,4 544,4 10,4 30,4 23,7 0,0
18.8.13 1019,7 1018,3 1019,0 19,7 50,4 7,7 19,5 3,6 544,4 11,8 28,7 32,4 0,0
19.8.13 1022,8 1016,8 1019,2 16,8 72,6 11,5 16,7 1,8 546,8 13,8 21,2 38,8 2,4
20.8.13 1030,6 1022,8 1027,5 14,8 70,5 9,0 14,6 3,2 546,8 11,6 20,3 17,5 0,0
21.8.13 1030,7 1026,0 1028,5 15,3 61,1 6,3 15,3 0,6 546,8 6,4 23,3 14,7 0,0
22.8.13 1026,2 1021,8 1023,8 17,7 49,9 5,0 17,7 1,0 546,8 10,1 26,8 16,9 0,0
23.8.13 1022,7 1020,7 1021,7 16,0 56,9 6,7 15,9 1,7 546,8 10,2 21,5 20,8 0,0
24.8.13 1021,5 1015,0 1018,0 18,0 52,5 7,4 17,7 2,9 546,8 13,3 23,4 19,0 0,0
25.8.13 1015,1 1013,4 1014,2 15,1 71,7 9,8 14,9 2,8 548,0 13,3 18,2 33,8 1,2
26.8.13 1019,2 1014,9 1017,1 13,5 85,7 11,1 13,3 2,7 550,3 12,5 15,4 18,0 2,3
27.8.13 1019,3 1016,7 1017,8 13,4 76,5 9,0 13,4 0,9 550,3 9,2 19,1 22,3 0,0
28.8.13 1022,9 1017,3 1019,5 15,3 66,6 8,6 15,0 2,4 550,4 11,8 20,6 18,7 0,1
29.8.13 1025,0 1023,0 1024,1 16,2 58,6 5,5 16,2 0,6 550,4 6,3 25,8 16,9 0,0
30.8.13 1024,9 1022,0 1023,4 17,5 50,6 4,5 17,4 2,0 550,4 8,5 26,3 23,7 0,0
31.8.13 1023,2 1021,5 1022,2 16,6 57,5 7,3 16,3 3,0 550,4 10,2 24,2 30,9 0,0
1.9.13 1026,9 1023,0 1025,7 14,6 54,8 4,0 14,1 4,5 550,8 10,1 20,2 25,9 0,4
2.9.13 1026,7 1023,7 1025,0 13,1 62,1 6,0 12,0 6,5 551,0 10,7 16,0 35,2 0,2
3.9.13 1029,6 1025,2 1027,5 16,7 67,8 10,6 16,2 4,8 551,0 13,8 20,7 25,2 0,0
4.9.13 1029,7 1024,6 1027,4 18,2 67,5 10,7 18,2 0,5 551,0 10,8 27,1 14,0 0,0
5.9.13 1024,7 1019,1 1022,0 19,3 56,6 8,5 19,2 1,4 551,0 11,1 27,5 11,5 0,0
6.9.13 1019,7 1016,2 1017,6 18,8 54,4 8,0 18,7 2,4 551,0 11,3 25,8 33,1 0,0
7.9.13 1021,6 1018,2 1020,1 20,5 50,5 8,4 20,4 2,1 551,0 12,6 31,0 17,6 0,0
8.9.13 1021,4 1018,6 1020,5 17,6 59,9 9,6 17,6 1,7 552,1 14,8 20,7 26,2 1,1
9.9.13 1020,9 1016,8 1019,3 13,4 76,7 9,0 12,7 4,4 573,9 8,3 17,0 31,3 21,8
10.9.13 1020,3 1015,4 1016,9 11,4 72,2 6,4 10,6 4,4 575,6 7,7 16,4 29,5 1,7
11.9.13 1017,9 1014,4 1015,7 10,3 79,4 6,8 9,3 5,4 576,5 8,7 11,2 34,3 0,9
12.9.13 1019,3 1013,9 1015,8 10,2 87,8 8,2 10,2 1,3 591,1 8,3 13,2 18,3 14,6
13.9.13 1022,2 1019,4 1020,9 12,4 78,9 8,4 12,1 3,4 592,1 9,6 17,5 19,4 1,0
14.9.13 1022,0 1015,9 1018,6 13,1 84,3 10,4 12,8 2,4 592,9 9,8 14,8 18,7 0,8
15.9.13 1015,9 1010,8 1013,5 13,3 91,7 11,9 13,2 1,1 596,8 11,8 14,2 15,4 3,9
16.9.13 1010,9 1003,7 1007,2 11,6 86,6 9,4 11,1 3,5 609,1 9,3 12,8 29,5 12,3
17.9.13 1008,5 1003,8 1007,0 8,5 79,1 4,7 7,7 4,0 609,4 5,1 13,7 28,8 0,3
18.9.13 1006,9 998,9 1002,0 9,4 89,3 7,7 9,1 2,7 622,7 7,1 12,3 20,9 13,3
19.9.13 1016,4 1006,3 1012,6 9,5 79,4 5,8 9,0 3,5 622,9 6,9 13,8 13,8 0,2
20.9.13 1021,6 1014,6 1016,9 10,7 83,5 7,9 10,2 3,8 625,5 8,8 13,4 27,0 2,6
21.9.13 1029,6 1021,7 1026,0 11,9 79,0 8,0 11,8 2,1 626,0 7,4 17,1 18,0 0,5
22.9.13 1029,9 1027,5 1028,9 9,9 78,5 5,8 9,6 2,3 626,0 2,7 16,9 18,7 0,0
23.9.13 1027,6 1023,2 1025,5 13,6 74,1 8,8 13,3 4,1 626,0 11,3 18,7 21,2 0,0
24.9.13 1023,1 1017,2 1019,9 14,6 65,6 7,7 14,5 1,9 626,0 11,8 20,8 17,6 0,0
25.9.13 1017,6 1012,9 1015,4 13,3 76,3 8,8 13,3 0,7 626,0 8,4 19,2 13,3 0,0
26.9.13 1020,3 1012,3 1015,2 12,4 78,5 8,6 12,0 3,3 626,0 8,7 16,4 26,6 0,0
27.9.13 1020,5 1018,5 1019,8 9,3 68,4 2,9 9,2 0,9 626,0 3,4 17,4 14,7 0,0
28.9.13 1019,6 1015,9 1017,7 7,6 61,0 -0,7 7,5 1,5 626,0 -1,4 16,5 19,4 0,0
29.9.13 1017,0 1014,1 1015,4 9,5 56,3 0,5 8,6 5,1 626,0 4,5 15,0 33,8 0,0
30.9.13 1014,5 1012,7 1013,5 9,0 57,4 0,3 8,2 5,0 626,0 2,7 14,8 33,1 0,0
1.10.13 1019,8 1014,4 1015,8 8,8 52,5 -1,4 8,6 2,4 626,0 2,4 16,9 19,8 0,0
2.10.13 1026,7 1019,9 1023,3 6,0 53,0 -4,6 5,4 3,3 626,0 0,5 12,8 37,8 0,0
3.10.13 1026,9 1025,0 1026,0 6,5 43,2 -6,4 5,0 6,1 626,0 1,7 13,1 36,3 0,0
4.10.13 1026,0 1022,4 1024,5 6,3 50,6 -3,4 5,6 4,5 626,0 1,1 12,3 31,6 0,0
5.10.13 1022,6 1019,1 1020,2 8,0 56,5 -0,3 7,8 2,0 628,4 3,3 11,9 21,9 2,4
6.10.13 1028,1 1021,4 1024,6 10,3 84,8 7,7 10,3 1,0 628,4 7,3 14,0 15,8 0,0
7.10.13 1029,1 1027,5 1028,2 12,2 73,1 7,1 11,8 2,4 628,4 10,3 14,8 25,9 0,0
8.10.13 1028,2 1024,7 1026,5 9,8 71,9 4,2 9,7 0,5 628,4 1,8 20,1 10,0 0,0
9.10.13 1025,9 1015,3 1021,5 10,8 76,9 6,8 10,6 1,9 628,4 8,0 14,5 26,9 0,0
10.10.13 1015,2 1007,4 1010,3 8,8 87,0 6,7 8,3 3,9 641,9 5,0 11,4 31,6 13,5
11.10.13 1020,1 1012,7 1014,9 5,7 93,6 4,7 5,5 1,2 658,5 3,5 7,8 20,8 16,6
12.10.13 1021,4 1017,7 1019,2 5,4 89,3 3,7 5,3 1,1 658,5 1,4 10,4 21,2 0,0
13.10.13 1022,6 1019,1 1021,4 5,5 78,1 1,7 5,1 2,5 658,5 1,2 11,8 23,4 0,0
14.10.13 1022,5 1019,1 1021,0 8,4 77,1 4,3 8,2 1,8 658,5 3,4 15,5 35,2 0,0
15.10.13 1019,0 1010,1 1013,7 9,1 84,7 6,6 8,4 3,3 663,7 6,3 11,0 34,2 5,2
16.10.13 1018,0 1010,1 1014,3 6,8 86,1 4,5 6,7 1,9 663,7 4,9 10,8 19,4 0,0
17.10.13 1017,4 1014,9 1016,0 8,7 86,7 6,5 7,8 4,6 669,0 4,2 12,1 34,5 5,3
18.10.13 1022,5 1015,6 1019,9 8,9 81,3 5,7 8,2 4,2 669,3 4,3 10,9 26,6 0,3
19.10.13 1022,4 1017,2 1019,5 8,1 76,1 3,5 8,0 1,6 669,3 1,0 15,7 33,1 0,0
20.10.13 1019,7 1018,0 1018,8 12,7 84,0 9,9 12,4 2,1 673,1 9,9 17,7 29,1 3,8
21.10.13 1020,8 1018,7 1019,8 13,8 76,6 9,6 13,6 2,9 673,1 9,9 18,2 29,8 0,0
22.10.13 1020,5 1013,5 1017,3 14,3 74,4 9,1 14,2 1,9 673,1 8,7 21,8 24,8 0,0
23.10.13 1016,8 1012,6 1014,1 12,7 80,3 9,3 11,9 5,2 673,1 10,1 15,4 33,4 0,0
24.10.13 1023,5 1017,1 1020,6 12,4 75,2 8,0 12,3 2,1 673,1 6,7 15,8 28,8 0,0
25.10.13 1022,9 1019,1 1020,7 9,6 84,9 7,1 9,5 1,0 673,1 3,3 14,3 15,8 0,0
26.10.13 1019,9 1018,0 1018,9 14,1 75,2 9,4 14,0 2,4 673,1 10,0 21,7 29,8 0,0
27.10.13 1017,9 1010,8 1014,0 13,8 70,6 8,0 12,8 6,1 676,1 10,7 19,5 45,7 3,0
28.10.13 1014,2 1005,8 1009,5 14,6 58,5 5,9 12,8 11,5 676,1 10,9 20,3 69,8 0,0
29.10.13 1020,1 1012,0 1016,1 10,9 58,8 2,8 10,1 5,6 676,1 4,5 14,5 47,1 0,0
30.10.13 1028,7 1020,1 1024,4 6,5 67,1 0,5 6,0 3,2 676,1 -0,9 12,5 25,2 0,0
31.10.13 1029,0 1023,8 1026,8 3,3 69,3 -2,5 3,2 0,9 676,1 -2,4 12,2 21,6 0,0
1.11.13 1023,8 1016,1 1021,1 3,1 83,6 0,5 3,0 0,8 676,1 -1,3 8,3 19,0 0,0
2.11.13 1016,1 1007,2 1009,9 9,6 91,4 8,3 8,6 4,8 685,2 4,8 12,4 55,4 9,1
3.11.13 1010,2 1004,4 1007,4 8,1 82,0 5,1 6,2 7,2 693,3 4,5 11,2 37,0 8,1
4.11.13 1009,5 993,4 999,6 6,2 80,6 3,0 1,9 14,4 697,7 3,4 9,2 62,6 4,4
5.11.13 1003,7 995,4 1000,8 3,8 85,0 1,4 3,1 3,5 698,5 1,4 8,8 23,0 0,8
6.11.13 1008,4 997,0 1003,5 5,5 84,4 3,0 3,7 6,6 700,8 2,1 7,0 33,8 2,3
7.11.13 1014,1 1007,8 1011,3 11,6 84,1 8,9 10,2 7,6 700,8 6,8 13,3 43,9 0,0
8.11.13 1013,6 1009,4 1012,2 10,9 84,7 8,4 10,0 4,7 703,2 8,7 12,4 31,6 2,4
9.11.13 1015,0 1009,2 1012,7 7,7 78,1 4,0 6,1 6,9 705,8 2,5 11,8 36,3 2,6
10.11.13 1018,2 1004,9 1009,1 3,8 86,8 1,8 2,9 2,9 713,5 2,0 6,0 35,6 7,7
11.11.13 1032,5 1018,3 1027,5 3,2 83,0 0,5 3,1 2,2 713,5 -1,5 5,7 12,6 0,0
12.11.13 1032,2 1025,1 1028,0 0,3 79,5 -3,1 0,2 0,8 713,5 -3,5 7,1 20,8 0,0
13.11.13 1031,2 1025,7 1029,3 1,6 89,8 0,1 1,6 0,4 714,0 -2,2 5,7 10,8 0,5
14.11.13 1029,5 1020,3 1023,3 -1,0 83,6 -3,5 -1,0 0,5 714,0 -5,1 3,1 24,1 0,0
15.11.13 1030,0 1021,1 1025,7 1,7 83,1 -0,8 1,4 2,2 714,0 -0,1 4,1 22,1 0,0
16.11.13 1031,4 1028,2 1029,8 3,0 83,6 0,5 3,0 0,7 714,0 -0,9 8,2 9,3 0,0
17.11.13 1028,2 1020,6 1024,8 0,0 93,1 -1,0 -0,0 1,0 714,0 -2,8 2,9 13,3 0,0
18.11.13 1020,5 1011,5 1014,8 3,2 88,1 1,3 2,5 2,8 714,0 2,5 4,1 34,2 0,0
19.11.13 1011,5 1004,8 1007,8 2,8 91,8 1,6 2,5 2,5 714,0 1,5 4,1 27,7 0,0
20.11.13 1005,0 1002,6 1004,1 1,9 93,2 0,9 1,7 2,6 719,8 0,6 3,5 19,8 5,8
21.11.13 1004,6 1001,2 1002,7 1,0 89,5 -0,5 0,8 2,1 719,8 0,5 1,7 20,8 0,0
22.11.13 1011,8 1003,5 1006,9 2,2 95,9 1,6 1,0 6,2 719,8 1,2 3,2 21,2 0,0
23.11.13 1016,4 1011,7 1014,6 3,1 95,8 2,4 1,5 6,5 719,8 2,3 4,0 26,6 0,0
24.11.13 1022,4 1016,2 1018,1 1,6 88,4 -0,1 -0,8 8,0 719,8 -1,9 3,9 30,9 0,0
25.11.13 1028,0 1022,5 1025,6 -2,1 66,2 -7,9 -3,1 4,9 719,8 -5,4 4,1 14,7 0,0
26.11.13 1032,6 1027,9 1030,1 -3,1 69,9 -7,8 -3,7 3,6 719,8 -8,8 1,7 21,9 0,0
27.11.13 1033,2 1031,6 1032,2 -5,2 66,9 -10,6 -5,4 1,6 719,8 -10,5 1,7 18,7 0,0
28.11.13 1031,7 1028,0 1029,4 -2,5 84,2 -4,8 -3,1 2,7 719,8 -3,7 -0,9 22,6 0,0
29.11.13 1028,7 1011,5 1022,2 0,3 91,8 -0,9 -0,4 3,3 720,7 -0,9 0,8 34,9 0,9
30.11.13 1025,6 1011,8 1017,3 1,0 90,1 -0,5 0,4 4,1 723,0 0,5 1,5 25,2 2,3
1.12.13 1029,6 1025,7 1027,6 1,1 89,8 -0,3 1,0 1,9 723,2 0,2 2,7 19,8 0,2
2.12.13 1034,9 1029,7 1032,9 2,0 83,5 -0,7 1,9 0,7 723,2 -1,6 8,3 11,8 0,0
3.12.13 1033,2 1027,4 1030,2 -0,2 59,3 -7,3 -0,3 0,9 723,2 -3,0 3,5 20,8 0,0
4.12.13 1027,4 1023,7 1025,0 -2,6 84,6 -4,8 -3,8 4,7 723,0 -5,9 0,0 36,0 0,0
5.12.13 1027,6 1007,0 1020,0 0,6 83,4 -1,9 -1,5 7,2 728,6 -0,6 2,0 52,2 5,6
6.12.13 1017,8 1008,4 1013,6 -1,0 66,8 -6,4 -7,9 16,8 728,8 -2,5 1,5 47,8 0,2
7.12.13 1024,2 1018,0 1022,8 -1,3 77,7 -4,7 -3,9 8,1 728,8 -3,3 0,4 29,1 0,0
8.12.13 1026,7 1024,1 1025,1 1,7 91,4 0,5 1,0 4,2 731,6 0,5 2,7 26,6 2,8
9.12.13 1032,1 1024,4 1026,9 3,3 90,6 1,9 0,1 9,8 733,7 2,8 3,7 33,8 2,1
10.12.13 1036,7 1032,1 1035,1 3,9 96,0 3,3 3,8 0,8 734,1 2,1 5,7 14,7 0,4
11.12.13 1036,2 1033,9 1035,2 1,1 96,0 0,5 1,0 0,8 734,1 -0,1 2,2 14,0 0,0
12.12.13 1034,1 1029,1 1031,6 0,2 91,2 -1,1 0,2 0,7 734,2 -1,9 5,8 13,6 0,1
13.12.13 1029,0 1025,2 1026,7 -1,6 93,7 -2,4 -1,7 1,4 734,2 -2,5 0,2 15,8 0,0
14.12.13 1031,5 1024,9 1027,1 -1,0 90,5 -2,3 -1,9 4,1 734,2 -2,8 0,2 26,6 0,0
15.12.13 1032,1 1030,9 1031,5 1,0 83,5 -1,5 0,5 2,9 735,9 -1,8 4,5 33,1 1,7
16.12.13 1032,1 1030,1 1030,9 0,8 73,7 -3,5 0,3 2,7 735,9 -2,9 6,8 15,1 0,0
17.12.13 1030,2 1026,9 1028,2 2,8 57,8 -4,9 2,3 3,5 735,9 -0,1 10,8 20,8 0,0
18.12.13 1026,9 1019,2 1024,2 -1,5 71,5 -6,0 -2,5 4,9 735,9 -3,1 0,2 23,0 0,0
19.12.13 1019,0 1012,6 1014,6 -0,9 74,5 -4,9 -2,0 4,2 735,9 -4,2 3,3 27,7 0,0
20.12.13 1032,1 1017,1 1023,7 1,5 83,7 -1,0 0,9 3,0 736,9 0,2 3,8 22,6 1,0
21.12.13 1032,9 1026,0 1030,9 0,9 78,2 -2,4 0,2 3,6 736,9 -0,7 2,5 32,4 0,0
22.12.13 1025,7 1019,3 1022,3 6,5 71,4 1,6 4,0 8,7 736,9 1,2 9,5 41,4 0,0
23.12.13 1021,7 1014,3 1019,2 5,8 79,3 2,5 3,8 7,4 739,5 4,3 8,2 38,8 2,6
24.12.13 1014,1 1002,1 1007,5 4,9 59,6 -2,5 2,9 7,2 739,5 1,5 9,3 48,9 0,0
25.12.13 1001,8 996,2 998,0 3,1 66,7 -2,5 2,4 3,1 739,5 2,1 4,9 29,5 0,0
26.12.13 1004,2 994,2 997,5 3,7 83,8 1,2 3,7 0,4 739,7 2,1 5,2 10,0 0,2
27.12.13 1010,9 1004,6 1008,7 3,7 70,6 -1,4 2,4 5,1 740,6 2,4 6,7 39,9 0,9
28.12.13 1008,6 1006,4 1007,5 4,0 65,6 -1,9 3,8 1,7 740,6 1,5 8,1 26,6 0,0
29.12.13 1025,1 1008,5 1016,9 3,3 76,3 -0,5 2,0 5,5 741,5 1,9 5,1 54,0 0,9
30.12.13 1029,2 1025,2 1027,3 1,6 66,5 -4,0 1,1 3,1 741,5 -2,2 4,7 25,9 0,0
31.12.13 1026,1 1017,2 1021,7 -1,2 74,8 -5,2 -1,3 1,0 741,5 -3,6 3,8 20,1 0,0